Time;durP1;ratioP1;P1;durP2;ratioP2;P2;SDS_P1;SDS_P2;PMS_P1;PMS_P2;Temp;Humidity;BMP_temperature;BMP_pressure;BME280_temperature;BME280_humidity;BME280_pressure;Samples;Min_cycle;Max_cycle;Signal;HPM_P1;HPM_P2
2022/09/24 00:01:25;;;;;;;7.67;6.90;;;;;;;10.29;100.00;96141.03;5012612;28;104091;-61
2022/09/24 00:03:54;;;;;;;9.90;7.33;;;;;;;10.34;100.00;96122.47;5010108;28;102034;-61
2022/09/24 00:06:23;;;;;;;9.97;7.50;;;;;;;10.31;100.00;96120.34;5010043;28;102512;-60
2022/09/24 00:08:53;;;;;;;7.50;6.40;;;;;;;10.35;100.00;96124.09;5010844;28;102821;-61
2022/09/24 00:11:20;;;;;;;7.83;7.03;;;;;;;10.42;100.00;96127.34;5011128;28;101891;-60
2022/09/24 00:13:50;;;;;;;7.70;7.00;;;;;;;10.44;100.00;96123.38;5009610;28;105458;-61
2022/09/24 00:16:20;;;;;;;7.60;6.80;;;;;;;10.46;100.00;96123.13;5009292;28;105403;-60
2022/09/24 00:18:48;;;;;;;7.90;7.10;;;;;;;10.50;100.00;96124.19;5011318;28;102215;-61
2022/09/24 00:21:17;;;;;;;7.23;6.53;;;;;;;10.56;100.00;96123.97;5011000;28;102322;-60
2022/09/24 00:23:45;;;;;;;7.20;6.40;;;;;;;10.61;100.00;96131.97;5013962;28;103007;-61
2022/09/24 00:29:00;;;;;;;7.73;6.93;;;;;;;10.64;100.00;96118.16;5008897;28;105857;-61
2022/09/24 00:31:27;;;;;;;8.23;6.83;;;;;;;10.67;100.00;96122.16;5009637;28;101967;-61
2022/09/24 00:33:55;;;;;;;8.00;7.20;;;;;;;10.59;100.00;96117.34;5009533;28;105594;-61
2022/09/24 00:36:22;;;;;;;7.73;7.03;;;;;;;10.66;100.00;96109.94;5009037;28;105990;-61
2022/09/24 00:38:51;;;;;;;7.80;7.03;;;;;;;10.73;100.00;96111.31;5009142;28;103468;-61
2022/09/24 00:41:20;;;;;;;8.10;7.30;;;;;;;10.71;100.00;96107.31;5009553;28;105332;-60
2022/09/24 00:43:48;;;;;;;8.33;7.03;;;;;;;10.76;100.00;96116.13;5010020;28;103209;-60
2022/09/24 00:46:22;;;;;;;7.67;6.97;;;;;;;10.78;100.00;96118.50;5012985;28;101928;-61
2022/09/24 00:48:52;;;;;;;7.87;6.53;;;;;;;10.76;100.00;96110.81;5007273;28;105351;-61
2022/09/24 00:51:23;;;;;;;7.40;6.70;;;;;;;10.76;100.00;96104.69;5009565;28;101902;-61
2022/09/24 00:53:52;;;;;;;7.63;6.83;;;;;;;10.74;100.00;96104.13;5008990;28;102613;-60
2022/09/24 00:56:21;;;;;;;10.77;7.70;;;;;;;10.73;100.00;96106.00;5008886;28;102892;-60
2022/09/24 00:58:51;;;;;;;8.00;7.17;;;;;;;10.72;100.00;96101.72;5008892;28;102200;-61
2022/09/24 01:01:23;;;;;;;7.47;6.77;;;;;;;10.74;100.00;96104.13;5009252;28;105807;-61
2022/09/24 01:03:53;;;;;;;7.93;7.13;;;;;;;10.69;100.00;96098.78;5008809;28;104014;-61
2022/09/24 01:06:20;;;;;;;7.70;7.00;;;;;;;10.70;100.00;96100.38;5009336;28;101924;-60
2022/09/24 01:08:47;;;;;;;7.67;6.93;;;;;;;10.74;100.00;96088.97;5011874;28;104799;-60
2022/09/24 01:11:29;;;;;;;7.93;7.23;;;;;;;10.78;100.00;96094.56;5009222;28;102012;-60
2022/09/24 01:14:17;;;;;;;8.60;7.80;;;;;;;10.74;100.00;96091.63;5008855;28;105647;-60
2022/09/24 01:16:54;;;;;;;8.07;6.63;;;;;;;10.71;100.00;96086.03;5008443;28;104970;-60
2022/09/24 01:19:59;;;;;;;7.10;6.37;;;;;;;10.65;100.00;96089.72;5008671;28;101948;-60
2022/09/24 01:22:41;;;;;;;7.53;6.73;;;;;;;10.66;100.00;96078.03;4964843;28;105039;-60
2022/09/24 01:25:18;;;;;;;7.43;6.73;;;;;;;10.61;100.00;96078.00;5008382;28;104020;-60
2022/09/24 01:28:03;;;;;;;7.23;6.60;;;;;;;10.55;100.00;96081.69;5010082;28;101718;-60
2022/09/24 01:30:37;;;;;;;7.93;6.87;;;;;;;10.60;100.00;96079.88;5010376;28;102270;-61
2022/09/24 01:33:09;;;;;;;8.70;6.23;;;;;;;10.66;100.00;96072.69;5013083;28;102664;-60
2022/09/24 01:35:39;;;;;;;7.50;6.83;;;;;;;10.61;100.00;96081.47;5010062;28;102924;-60
2022/09/24 01:38:10;;;;;;;8.03;7.33;;;;;;;10.63;100.00;96073.22;5009261;28;104221;-60
2022/09/24 01:40:40;;;;;;;7.50;6.80;;;;;;;10.60;100.00;96068.41;5010004;28;101769;-61
2022/09/24 01:43:09;;;;;;;7.57;6.80;;;;;;;10.60;100.00;96068.41;5008475;28;104185;-60
2022/09/24 01:45:39;;;;;;;7.80;7.10;;;;;;;10.66;100.00;96072.69;5007670;28;105852;-60
2022/09/24 01:48:07;;;;;;;7.80;7.07;;;;;;;10.64;100.00;96066.84;5010156;28;101943;-61
2022/09/24 01:50:40;;;;;;;7.43;6.70;;;;;;;10.68;100.00;96059.97;5008200;28;105719;-61
2022/09/24 01:53:14;;;;;;;7.97;6.57;;;;;;;10.64;100.00;96058.88;5012194;28;102625;-61
2022/09/24 01:55:48;;;;;;;7.60;6.80;;;;;;;10.60;100.00;96057.78;5008436;28;105089;-61
2022/09/24 01:58:22;;;;;;;6.83;6.27;;;;;;;10.55;100.00;96052.44;5009336;28;101714;-60
2022/09/24 02:00:56;;;;;;;7.57;6.87;;;;;;;10.49;100.00;96050.81;5012946;28;101825;-61
2022/09/24 02:03:28;;;;;;;7.33;6.17;;;;;;;10.47;100.00;96044.97;5013532;28;101735;-60
2022/09/24 02:06:02;;;;;;;7.63;6.90;;;;;;;10.46;100.00;96044.16;5011241;28;105407;-61
2022/09/24 02:08:34;;;;;;;7.60;5.93;;;;;;;10.48;100.00;96051.88;5011813;28;102152;-60
2022/09/24 02:11:07;;;;;;;6.90;6.27;;;;;;;10.37;100.00;96050.22;5011819;28;105019;-60
2022/09/24 02:13:39;;;;;;;6.27;5.77;;;;;;;10.44;100.00;96040.97;5011116;28;105912;-61
2022/09/24 02:16:09;;;;;;;6.50;5.90;;;;;;;10.45;100.00;96039.09;5015225;28;101778;-61
2022/09/24 02:18:40;;;;;;;6.97;6.37;;;;;;;10.43;100.00;96039.38;5011023;28;104018;-61
2022/09/24 02:21:10;;;;;;;6.07;5.57;;;;;;;10.48;100.00;96027.94;5011524;28;101941;-61
2022/09/24 02:23:42;;;;;;;7.07;6.37;;;;;;;10.46;100.00;96025.53;5011549;28;104752;-60
2022/09/24 02:26:11;;;;;;;6.57;5.97;;;;;;;10.45;100.00;96023.13;5010979;28;105201;-60
2022/09/24 02:28:38;;;;;;;6.90;6.30;;;;;;;10.41;100.00;96024.72;5011707;28;101938;-60
2022/09/24 02:31:10;;;;;;;7.37;6.17;;;;;;;10.42;100.00;96023.66;5011586;28;105660;-60
2022/09/24 02:36:26;;;;;;;6.97;6.33;;;;;;;10.39;100.00;96018.84;5011405;28;102055;-60
2022/09/24 02:38:53;;;;;;;7.50;6.80;;;;;;;10.24;100.00;96014.25;5013767;28;105489;-60
2022/09/24 02:41:22;;;;;;;7.27;6.57;;;;;;;10.23;100.00;96010.00;5011323;28;101923;-61
2022/09/24 02:43:50;;;;;;;7.27;6.23;;;;;;;10.24;100.00;96010.81;5012673;28;102587;-60
2022/09/24 02:46:19;;;;;;;7.50;6.80;;;;;;;10.08;100.00;96006.47;5011992;28;102612;-60
2022/09/24 02:48:45;;;;;;;7.17;6.47;;;;;;;10.17;100.00;96007.56;5010825;28;101928;-60
2022/09/24 02:51:13;;;;;;;7.60;7.00;;;;;;;10.03;100.00;96009.06;5011212;28;105492;-60
2022/09/24 02:53:40;;;;;;;6.90;6.30;;;;;;;10.11;100.00;96008.59;5010226;28;105320;-60
2022/09/24 02:56:07;;;;;;;8.27;7.47;;;;;;;10.21;100.00;96000.69;5011286;28;101911;-60
2022/09/24 02:58:36;;;;;;;7.17;6.47;;;;;;;10.28;100.00;96001.25;5010910;28;104767;-60
2022/09/24 03:01:04;;;;;;;8.43;7.60;;;;;;;10.30;100.00;96004.47;5013909;28;105807;-61
2022/09/24 03:03:33;;;;;;;8.83;8.00;;;;;;;10.34;100.00;96001.03;5011029;28;104758;-61
2022/09/24 03:06:00;;;;;;;8.33;7.30;;;;;;;10.38;100.00;95996.00;5010268;28;105029;-61
2022/09/24 03:08:29;;;;;;;8.37;7.57;;;;;;;10.38;100.00;96003.97;5010870;28;101800;-60
2022/09/24 03:10:56;;;;;;;8.27;7.47;;;;;;;10.35;100.00;96001.84;5011048;28;102486;-60
2022/09/24 03:13:23;;;;;;;7.47;6.77;;;;;;;10.34;100.00;96000.22;5010060;28;105503;-60
2022/09/24 03:15:50;;;;;;;8.10;7.30;;;;;;;10.35;100.00;96001.84;5010869;28;101942;-60
2022/09/24 03:18:17;;;;;;;7.90;7.10;;;;;;;10.33;100.00;96009.25;5010690;28;106234;-60
2022/09/24 03:20:54;;;;;;;8.87;8.00;;;;;;;10.25;100.00;96007.09;5010049;28;105117;-60
2022/09/24 03:23:21;;;;;;;9.10;8.20;;;;;;;10.24;100.00;96010.81;5014076;28;101833;-60
2022/09/24 03:25:48;;;;;;;8.00;7.30;;;;;;;10.20;100.00;96009.72;5010027;28;104725;-61
2022/09/24 03:28:15;;;;;;;8.33;7.50;;;;;;;10.25;100.00;96002.56;5010515;28;101892;-61
2022/09/24 03:31:00;;;;;;;10.37;9.30;;;;;;;10.24;100.00;96003.63;5010712;28;104899;-60
2022/09/24 03:33:28;;;;;;;9.07;8.10;;;;;;;10.07;100.00;96008.31;5010048;28;103901;-61
2022/09/24 03:35:58;;;;;;;9.57;8.53;;;;;;;10.13;100.00;96001.16;5010258;28;101916;-61
2022/09/24 03:38:26;;;;;;;9.00;8.20;;;;;;;10.06;100.00;95997.94;5010429;28;104995;-60
2022/09/24 03:40:53;;;;;;;8.60;7.80;;;;;;;10.08;100.00;95998.50;5009722;28;105091;-61
2022/09/24 03:43:20;;;;;;;8.50;7.70;;;;;;;10.10;100.00;95993.72;5010485;28;101698;-60
2022/09/24 03:45:49;;;;;;;8.50;7.40;;;;;;;10.04;100.00;96000.84;5013087;28;103972;-60
2022/09/24 03:48:16;;;;;;;7.77;6.97;;;;;;;10.01;100.00;95995.22;5010184;28;102143;-60
2022/09/24 03:50:44;;;;;;;8.63;7.73;;;;;;;10.04;100.00;95994.75;5010327;28;104764;-60
2022/09/24 03:53:15;;;;;;;9.70;8.70;;;;;;;10.06;100.00;95992.63;5009142;28;105764;-60
2022/09/24 03:55:44;;;;;;;9.17;8.27;;;;;;;10.00;100.00;96010.38;5010270;28;102170;-60
2022/09/24 03:58:11;;;;;;;8.50;7.70;;;;;;;9.87;100.00;96002.03;5010210;28;105276;-61
2022/09/24 04:00:38;;;;;;;8.60;7.80;;;;;;;9.90;100.00;95994.34;4992881;28;105157;-61
2022/09/24 04:03:06;;;;;;;8.27;7.57;;;;;;;9.88;100.00;95988.47;5010013;28;101946;-61
2022/09/24 04:05:33;;;;;;;9.00;7.53;;;;;;;9.87;100.00;95988.75;5012782;28;103498;-61
2022/09/24 04:08:03;;;;;;;8.20;7.50;;;;;;;9.78;100.00;95979.66;5010103;28;102002;-60
2022/09/24 04:10:32;;;;;;;8.13;7.20;;;;;;;9.56;100.00;95971.00;5010082;28;105368;-60
2022/09/24 04:13:00;;;;;;;8.53;7.67;;;;;;;9.58;100.00;95966.22;5009045;28;104202;-60
2022/09/24 04:15:27;;;;;;;7.70;6.90;;;;;;;9.39;100.00;95963.16;5010151;28;101825;-60
2022/09/24 04:17:55;;;;;;;9.47;7.23;;;;;;;9.45;100.00;95964.00;5009705;28;105218;-61
2022/09/24 04:20:25;;;;;;;9.50;7.67;;;;;;;9.46;100.00;95954.97;5008976;28;105680;-61
2022/09/24 04:22:54;;;;;;;8.83;7.97;;;;;;;9.32;100.00;95964.44;5009343;28;101907;-61
2022/09/24 04:25:23;;;;;;;9.47;7.97;;;;;;;9.38;100.00;95966.06;5009493;28;105429;-60
2022/09/24 04:27:56;;;;;;;8.70;7.90;;;;;;;9.35;100.00;95964.72;5012718;28;105011;-60
2022/09/24 04:30:24;;;;;;;8.33;7.63;;;;;;;9.34;100.00;95957.00;5009873;28;104872;-60
2022/09/24 04:32:51;;;;;;;8.37;7.57;;;;;;;9.40;100.00;95956.81;5008965;28;105646;-60
2022/09/24 04:35:19;;;;;;;9.00;8.13;;;;;;;9.42;100.00;95959.19;5009331;28;101926;-60
2022/09/24 04:37:47;;;;;;;8.27;7.40;;;;;;;9.45;100.00;95953.38;5009453;28;104196;-60
2022/09/24 04:40:15;;;;;;;8.93;8.07;;;;;;;9.51;100.00;95949.72;5010462;28;102680;-61
2022/09/24 04:42:43;;;;;;;8.00;7.20;;;;;;;9.55;100.00;95953.47;5009574;28;101861;-61
2022/09/24 04:45:16;;;;;;;11.63;9.17;;;;;;;9.58;100.00;95955.59;5009554;28;104747;-60
2022/09/24 04:47:43;;;;;;;10.40;9.30;;;;;;;9.46;100.00;95957.63;5008569;28;105556;-60
2022/09/24 04:50:12;;;;;;;10.00;9.07;;;;;;;9.36;100.00;95962.84;5014054;28;101789;-60
2022/09/24 04:52:40;;;;;;;11.37;10.17;;;;;;;9.34;100.00;95952.50;5008083;28;105720;-61
2022/09/24 04:55:07;;;;;;;11.27;10.23;;;;;;;9.33;100.00;95961.50;5008332;28;101801;-61
2022/09/24 04:57:35;;;;;;;11.23;10.23;;;;;;;9.41;100.00;95969.03;5008058;28;105505;-60
2022/09/24 05:00:03;;;;;;;11.13;10.20;;;;;;;9.47;100.00;95961.88;5007578;28;105764;-60
2022/09/24 05:02:32;;;;;;;11.70;10.60;;;;;;;9.52;100.00;95964.59;5008285;28;101926;-60
2022/09/24 05:04:59;;;;;;;12.80;11.60;;;;;;;9.52;100.00;95964.59;5008145;28;104915;-60
2022/09/24 05:07:28;;;;;;;12.47;11.03;;;;;;;9.51;100.00;95968.28;5007646;28;103960;-60
2022/09/24 05:09:56;;;;;;;12.10;11.00;;;;;;;9.63;100.00;95972.38;5008262;28;102000;-60
2022/09/24 05:12:23;;;;;;;12.73;11.43;;;;;;;9.73;100.00;95967.16;5010862;28;104859;-60
2022/09/24 05:14:50;;;;;;;12.97;11.77;;;;;;;9.81;100.00;95960.56;5009599;28;101970;-60
2022/09/24 05:17:19;;;;;;;13.23;12.03;;;;;;;9.82;100.00;95954.19;5009526;28;101687;-60
2022/09/24 05:19:47;;;;;;;13.27;12.07;;;;;;;9.87;100.00;95954.22;5007242;28;105707;-60
2022/09/24 05:22:14;;;;;;;14.50;13.20;;;;;;;9.81;100.00;95953.38;5007288;28;101782;-60
2022/09/24 05:24:41;;;;;;;14.40;13.00;;;;;;;9.78;100.00;95953.09;5008028;28;104073;-60
2022/09/24 05:27:08;;;;;;;13.93;12.63;;;;;;;9.81;100.00;95963.22;5007281;28;103935;-60
2022/09/24 05:29:36;;;;;;;14.80;13.40;;;;;;;9.88;100.00;95961.91;5007830;28;102142;-60
2022/09/24 05:32:05;;;;;;;13.07;11.80;;;;;;;9.96;100.00;95971.28;5007613;28;105468;-60
2022/09/24 05:34:33;;;;;;;13.60;12.27;;;;;;;10.05;100.00;95973.25;5011589;28;104313;-60
2022/09/24 05:37:02;;;;;;;14.93;12.33;;;;;;;10.07;100.00;95978.28;5012665;28;103445;-60
2022/09/24 05:39:30;;;;;;;12.57;11.27;;;;;;;10.14;100.00;95978.88;5010877;28;104995;-60
2022/09/24 05:41:57;;;;;;;15.20;13.73;;;;;;;10.14;100.00;95981.53;5011196;28;102009;-60
2022/09/24 05:44:26;;;;;;;13.43;12.23;;;;;;;10.20;100.00;95981.28;5011370;28;103926;-60
2022/09/24 05:46:53;;;;;;;13.10;11.93;;;;;;;10.28;100.00;95975.50;5010630;28;105014;-60
2022/09/24 05:49:20;;;;;;;12.70;11.60;;;;;;;10.38;100.00;95975.53;5010902;28;101934;-60
2022/09/24 05:51:49;;;;;;;12.17;10.97;;;;;;;10.43;100.00;95982.72;5010857;28;105694;-60
2022/09/24 05:54:18;;;;;;;13.23;11.93;;;;;;;10.50;100.00;95973.47;5010318;28;105033;-60
2022/09/24 05:56:46;;;;;;;12.10;11.00;;;;;;;10.54;100.00;95971.09;5014614;28;101721;-60
2022/09/24 05:59:14;;;;;;;13.37;11.97;;;;;;;10.75;100.00;95970.88;5010414;28;103532;-60
2022/09/24 06:01:41;;;;;;;13.90;12.50;;;;;;;10.94;100.00;95971.22;5010751;28;101922;-60
2022/09/24 06:04:10;;;;;;;13.87;12.57;;;;;;;11.04;100.00;95974.72;5010858;28;105198;-60
2022/09/24 06:06:37;;;;;;;16.57;14.87;;;;;;;11.20;100.00;95975.53;5010502;28;105674;-60
2022/09/24 06:09:04;;;;;;;15.90;14.37;;;;;;;11.38;100.00;95965.16;5010722;28;101798;-60
2022/09/24 06:11:34;;;;;;;16.00;14.40;;;;;;;11.59;100.00;95968.66;5010940;28;103670;-60
2022/09/24 06:14:04;;;;;;;14.50;13.00;;;;;;;11.71;100.00;95958.53;5010375;28;104080;-60
2022/09/24 06:16:33;;;;;;;16.70;14.90;;;;;;;11.86;100.00;95961.19;5014129;28;102086;-60
2022/09/24 06:18:59;;;;;;;22.17;19.60;;;;;;;11.96;100.00;95962.00;5009978;28;105474;-60
2022/09/24 06:21:26;;;;;;;17.33;15.53;;;;;;;12.00;100.00;95963.03;5010563;28;102194;-60
2022/09/24 06:23:54;;;;;;;18.70;16.80;;;;;;;12.12;100.00;95960.91;5011885;28;102154;-60
2022/09/24 06:26:21;;;;;;;17.50;14.97;;;;;;;12.22;100.00;95965.41;5010125;28;104300;-60
2022/09/24 06:28:50;;;;;;;16.83;15.23;;;;;;;12.35;100.00;95959.50;5010465;28;102049;-60
2022/09/24 06:31:18;;;;;;;13.60;12.30;;;;;;;12.51;100.00;95969.03;5010475;28;105758;-60
2022/09/24 06:33:44;;;;;;;14.50;12.17;;;;;;;12.58;100.00;95961.53;5009964;28;105103;-60
2022/09/24 06:36:12;;;;;;;12.73;11.40;;;;;;;12.67;100.00;95962.59;5010468;28;102153;-60
2022/09/24 06:38:40;;;;;;;12.63;11.43;;;;;;;12.71;100.00;95959.09;5013122;28;105011;-60
2022/09/24 06:41:07;;;;;;;12.97;11.77;;;;;;;12.80;100.00;95967.34;5010135;28;101846;-60
2022/09/24 06:43:34;;;;;;;10.90;9.90;;;;;;;12.87;100.00;95960.63;5010260;28;104718;-61
2022/09/24 06:46:03;;;;;;;10.20;9.23;;;;;;;13.11;100.00;95958.13;5010156;28;105170;-61
2022/09/24 06:48:31;;;;;;;9.80;8.90;;;;;;;13.19;100.00;95954.88;5011071;28;101911;-60
2022/09/24 06:50:58;;;;;;;9.40;8.60;;;;;;;13.38;100.00;95958.47;5011198;28;104856;-61
2022/09/24 06:53:26;;;;;;;11.03;9.30;;;;;;;13.40;100.00;95951.00;5011766;28;102544;-60
2022/09/24 06:55:57;;;;;;;12.40;9.10;;;;;;;13.71;100.00;95947.81;5012622;28;101837;-60
2022/09/24 06:58:24;;;;;;;13.43;10.10;;;;;;;13.75;100.00;95948.03;5011231;28;105082;-60
2022/09/24 07:00:53;;;;;;;8.53;7.73;;;;;;;13.78;100.00;95945.59;5012798;28;106063;-60
2022/09/24 07:03:22;;;;;;;9.10;8.20;;;;;;;13.88;100.00;95945.50;5012294;28;102839;-60
2022/09/24 07:05:50;;;;;;;8.23;7.50;;;;;;;13.94;100.00;95943.56;5010382;28;105102;-60
2022/09/24 07:08:18;;;;;;;8.73;7.63;;;;;;;13.79;100.00;95954.44;5009282;28;101730;-60
2022/09/24 07:10:46;;;;;;;8.53;7.37;;;;;;;13.71;100.00;95947.81;5010421;28;105087;-60
2022/09/24 07:13:14;;;;;;;10.43;7.60;;;;;;;13.72;100.00;95954.75;5009840;28;106060;-60
2022/09/24 07:15:41;;;;;;;7.77;7.03;;;;;;;13.74;100.00;95962.47;5010479;28;102247;-60
2022/09/24 07:18:09;;;;;;;6.20;5.60;;;;;;;13.71;100.00;95955.81;5010757;28;105355;-60
2022/09/24 07:20:38;;;;;;;5.70;5.30;;;;;;;13.97;100.00;95959.88;5010014;28;105389;-60
2022/09/24 07:23:05;;;;;;;5.80;5.30;;;;;;;13.94;100.00;95952.41;5013883;28;101848;-60
2022/09/24 07:25:32;;;;;;;5.10;4.70;;;;;;;14.02;100.00;95956.34;5010046;28;105760;-61
2022/09/24 07:28:04;;;;;;;5.20;4.70;;;;;;;14.12;100.00;95957.03;5010596;28;101782;-60
2022/09/24 07:30:32;;;;;;;5.57;5.07;;;;;;;14.14;100.00;95952.22;5010371;28;104083;-60
2022/09/24 07:33:00;;;;;;;5.83;5.33;;;;;;;14.21;100.00;95955.38;5011228;28;101965;-60
2022/09/24 07:35:27;;;;;;;5.33;4.83;;;;;;;14.30;100.00;95955.56;5010392;28;101987;-60
2022/09/24 07:38:00;;;;;;;4.77;4.37;;;;;;;14.27;100.00;95951.56;5010295;28;105367;-60
2022/09/24 07:40:28;;;;;;;6.53;5.93;;;;;;;14.29;100.00;95949.41;5009824;28;105924;-60
2022/09/24 07:42:56;;;;;;;5.97;5.47;;;;;;;14.36;100.00;95951.75;5010022;28;102010;-60
2022/09/24 07:45:24;;;;;;;6.43;4.70;;;;;;;14.21;100.00;95947.34;5013218;28;104965;-60
2022/09/24 07:47:57;;;;;;;4.40;3.93;;;;;;;14.26;100.00;95954.50;5010246;28;101925;-60
2022/09/24 07:50:24;;;;;;;4.97;4.30;;;;;;;14.29;100.00;95953.97;5010314;28;104897;-61
2022/09/24 07:52:51;;;;;;;6.03;5.43;;;;;;;14.36;100.00;95955.22;5009202;28;105278;-60
2022/09/24 07:55:20;;;;;;;9.13;8.20;;;;;;;14.48;100.00;95957.47;5011956;28;101871;-60
2022/09/24 07:57:48;;;;;;;13.87;12.43;;;;;;;14.64;100.00;95961.59;5009343;28;105362;-60
2022/09/24 08:00:17;;;;;;;5.80;5.30;;;;;;;14.73;100.00;95966.03;5008574;28;105821;-60
2022/09/24 08:02:45;;;;;;;6.47;5.03;;;;;;;14.79;100.00;95972.13;5011255;28;101879;-60
2022/09/24 08:05:14;;;;;;;6.30;5.03;;;;;;;14.84;100.00;95970.19;5010147;28;105154;-60
2022/09/24 08:07:41;;;;;;;6.53;4.43;;;;;;;15.09;100.00;95974.41;5012808;28;102025;-60
2022/09/24 08:10:09;;;;;;;5.50;5.00;;;;;;;15.37;100.00;95971.63;5011576;28;102558;-60
2022/09/24 08:12:38;;;;;;;6.13;5.53;;;;;;;15.42;100.00;95973.44;5010393;28;102875;-60
2022/09/24 08:15:06;;;;;;;6.23;5.50;;;;;;;15.67;100.00;95967.69;5009762;28;101889;-60
2022/09/24 08:17:33;;;;;;;5.80;5.30;;;;;;;15.82;100.00;95968.25;5009760;28;104667;-60
2022/09/24 08:20:01;;;;;;;5.50;5.00;;;;;;;15.91;100.00;95965.69;5009303;28;105700;-60
2022/09/24 08:22:28;;;;;;;6.87;6.17;;;;;;;15.82;100.00;95978.19;5009860;28;102007;-60
2022/09/24 08:24:56;;;;;;;5.70;5.10;;;;;;;15.87;100.00;95976.19;5009573;28;105050;-60
2022/09/24 08:27:24;;;;;;;5.47;4.97;;;;;;;15.93;100.00;95980.41;5012382;28;105311;-60
2022/09/24 08:29:52;;;;;;;4.77;4.37;;;;;;;15.46;100.00;95974.44;5009784;28;105322;-60
2022/09/24 08:32:19;;;;;;;4.20;3.80;;;;;;;15.41;100.00;95974.50;5009149;28;104701;-60
2022/09/24 08:34:46;;;;;;;3.77;3.47;;;;;;;15.50;100.00;95978.94;5009406;28;102439;-61
2022/09/24 08:37:13;;;;;;;3.27;3.07;;;;;;;15.62;100.00;95975.81;5009555;28;105151;-61
2022/09/24 08:39:40;;;;;;;3.73;3.43;;;;;;;15.64;100.00;95968.28;5008947;28;102792;-61
2022/09/24 08:42:15;;;;;;;3.67;3.33;;;;;;;15.68;100.00;95972.75;5009284;28;101961;-60
2022/09/24 08:47:41;;;;;;;3.37;3.07;;;;;;;16.01;100.00;95968.19;5008753;28;105270;-60
2022/09/24 08:50:15;;;;;;;5.37;3.30;;;;;;;16.03;100.00;95971.41;5012960;28;101899;-60
2022/09/24 08:52:56;;;;;;;3.70;3.00;;;;;;;15.70;100.00;95977.84;5008384;28;105631;-60
2022/09/24 08:55:31;;;;;;;4.47;3.23;;;;;;;15.54;100.00;95979.16;5009391;28;101953;-60
2022/09/24 08:58:06;;;;;;;3.20;3.00;;;;;;;15.55;100.00;95986.91;5010856;28;101907;-61
2022/09/24 09:00:42;;;;;;;3.60;3.30;;;;;;;15.67;100.00;95987.25;5008518;28;105493;-61
2022/09/24 09:03:22;;;;;;;5.10;3.20;;;;;;;15.56;100.00;95987.69;5009165;28;103434;-61
2022/09/24 09:05:54;;;;;;;4.60;3.57;;;;;;;15.40;100.00;95992.50;4993680;28;103970;-60
2022/09/24 09:08:34;;;;;;;4.23;3.33;;;;;;;15.46;100.00;95982.47;5009083;28;104627;-61
2022/09/24 09:11:05;;;;;;;6.53;5.27;;;;;;;15.45;100.00;95988.94;5010276;28;101725;-61
2022/09/24 09:13:36;;;;;;;5.23;4.10;;;;;;;15.33;100.00;95992.06;5013307;28;102560;-61
2022/09/24 09:16:07;;;;;;;5.03;4.07;;;;;;;15.47;100.00;95994.81;5010488;28;101745;-61
2022/09/24 09:18:40;;;;;;;8.83;4.40;;;;;;;15.46;100.00;95996.69;5009083;28;103578;-61
2022/09/24 09:21:15;;;;;;;7.70;5.30;;;;;;;15.54;100.00;95995.22;5008208;28;105189;-61
2022/09/24 09:23:48;;;;;;;4.77;3.97;;;;;;;15.65;100.00;96002.81;5008595;28;102224;-60
2022/09/24 09:26:17;;;;;;;3.80;3.40;;;;;;;15.82;100.00;95994.25;5008918;28;105296;-60
2022/09/24 09:28:45;;;;;;;3.50;3.23;;;;;;;15.87;100.00;95989.59;5008405;28;105024;-60
2022/09/24 09:31:25;;;;;;;3.50;3.20;;;;;;;15.99;100.00;95994.53;5010043;28;101918;-60
2022/09/24 09:34:23;;;;;;;4.03;3.00;;;;;;;15.96;100.00;95998.56;5008717;28;105203;-61
2022/09/24 09:37:01;;;;;;;3.33;2.70;;;;;;;15.86;100.00;96000.63;5011517;28;104262;-61
2022/09/24 09:39:40;;;;;;;3.20;2.83;;;;;;;16.06;100.00;96001.09;5008795;28;103919;-61
2022/09/24 09:42:22;;;;;;;3.27;3.00;;;;;;;16.03;100.00;96003.56;5008040;28;105055;-60
2022/09/24 09:44:49;;;;;;;3.07;2.57;;;;;;;15.89;100.00;96006.22;5008581;28;101848;-61
2022/09/24 09:47:25;;;;;;;3.20;2.77;;;;;;;15.85;100.00;96002.50;5008550;28;105397;-61
2022/09/24 09:49:58;;;;;;;2.90;2.70;;;;;;;16.08;100.00;95998.91;5009645;28;102845;-60
2022/09/24 09:52:30;;;;;;;2.90;2.70;;;;;;;15.98;100.00;96000.97;5008182;28;101853;-60
2022/09/24 09:54:57;;;;;;;3.07;2.77;;;;;;;16.13;100.00;96001.50;5008574;28;104856;-60
2022/09/24 09:57:25;;;;;;;3.87;3.00;;;;;;;16.24;100.00;96004.84;5007636;28;105699;-61
2022/09/24 09:59:54;;;;;;;3.67;3.03;;;;;;;16.34;100.00;96005.44;5012271;28;101864;-61
2022/09/24 10:02:28;;;;;;;4.27;3.80;;;;;;;16.31;100.00;96013.28;5007832;28;105741;-60
2022/09/24 10:04:59;;;;;;;8.07;3.63;;;;;;;16.29;100.00;96000.16;5008475;28;101768;-60
2022/09/24 10:07:25;;;;;;;5.33;2.70;;;;;;;16.64;100.00;95996.06;5008146;28;106372;-60
2022/09/24 10:10:02;;;;;;;3.77;3.30;;;;;;;16.66;100.00;96004.59;5007684;28;105367;-60
2022/09/24 10:12:30;;;;;;;5.57;3.00;;;;;;;16.80;100.00;96000.84;5008105;28;101950;-60
2022/09/24 10:14:59;;;;;;;4.60;3.00;;;;;;;16.86;100.00;95999.66;5008374;28;105518;-60
2022/09/24 10:17:30;;;;;;;3.30;3.00;;;;;;;16.63;100.00;96008.69;5007627;28;105867;-60
2022/09/24 10:20:01;;;;;;;3.00;2.80;;;;;;;16.83;100.00;96004.81;5011747;28;102098;-60
2022/09/24 10:22:30;;;;;;;3.03;2.80;;;;;;;16.97;100.00;96006.44;5010862;28;105832;-60
2022/09/24 10:25:00;;;;;;;3.17;2.70;;;;;;;16.85;100.00;96010.69;5011585;28;102042;-60
2022/09/24 10:27:34;;;;;;;3.60;3.30;;;;;;;16.85;100.00;96018.75;5012907;28;102364;-60
2022/09/24 10:32:55;;;;;;;3.60;3.30;;;;;;;17.07;100.00;96016.16;5011509;28;101812;-61
2022/09/24 10:35:28;;;;;;;4.93;3.20;;;;;;;17.12;100.00;96019.53;5011374;28;105550;-60
2022/09/24 10:37:56;;;;;;;3.20;2.93;;;;;;;17.00;100.00;96023.84;5010799;28;105547;-60
2022/09/24 10:40:27;;;;;;;3.70;3.20;;;;;;;17.11;100.00;96022.53;5011377;28;101930;-60
2022/09/24 10:42:59;;;;;;;5.03;3.10;;;;;;;16.90;100.00;96022.13;5014212;28;104974;-61
2022/09/24 10:46:14;;;;;;;12.80;6.93;;;;;;;16.87;100.00;96021.94;5011465;28;101928;-60
2022/09/24 10:48:45;;;;;;;12.73;8.13;;;;;;;16.80;100.00;96013.47;4950764;28;104017;-60
2022/09/24 10:51:29;;;;;;;8.27;6.77;;;;;;;16.87;100.00;96011.19;4933872;28;105468;-60
2022/09/24 10:54:13;;;;;;;4.03;3.63;;;;;;;16.97;100.00;96017.16;4933860;28;101948;-60
2022/09/24 10:56:44;;;;;;;4.47;3.60;;;;;;;17.07;100.00;96018.84;4934472;28;106382;-60
2022/09/24 10:59:34;;;;;;;3.60;3.00;;;;;;;17.19;100.00;96013.75;4933711;28;105869;-61
2022/09/24 11:02:23;;;;;;;5.13;2.93;;;;;;;17.14;100.00;96017.34;4934118;28;101901;-62
2022/09/24 11:04:51;;;;;;;3.33;2.77;;;;;;;17.00;100.00;96011.19;4934038;28;104777;-61
2022/09/24 11:07:38;;;;;;;3.10;2.67;;;;;;;17.02;100.00;96008.19;4936794;28;105414;-61
2022/09/24 11:10:21;;;;;;;4.67;2.60;;;;;;;17.09;100.00;96016.66;4934086;28;104127;-61
2022/09/24 11:12:58;;;;;;;3.10;2.90;;;;;;;16.89;100.00;96014.38;4933607;28;105385;-61
2022/09/24 11:15:41;;;;;;;3.93;3.57;;;;;;;16.80;100.00;96016.97;4933995;28;102018;-61
2022/09/24 11:18:27;;;;;;;3.60;3.00;;;;;;;16.91;100.00;96014.88;4934162;28;105020;-61
2022/09/24 11:21:08;;;;;;;3.40;3.10;;;;;;;16.96;100.00;96014.78;5009900;28;105064;-61
2022/09/24 11:23:57;;;;;;;2.80;2.50;;;;;;;17.11;100.00;96011.78;5010446;28;101885;-61
2022/09/24 11:26:34;;;;;;;5.63;5.10;;;;;;;17.13;100.00;96020.34;5010685;28;103767;-61
2022/09/24 11:29:25;;;;;;;4.30;3.60;;;;;;;17.27;100.00;96013.06;5010201;28;102773;-61
2022/09/24 11:32:16;;;;;;;3.70;3.40;;;;;;;17.42;100.00;96008.19;5014283;28;101957;-61
2022/09/24 11:35:07;;;;;;;3.13;2.80;;;;;;;17.30;100.00;96015.13;5011192;28;103066;-61
2022/09/24 11:37:48;;;;;;;4.83;2.80;;;;;;;17.16;100.00;96015.16;5010308;28;102150;-61
2022/09/24 11:40:30;;;;;;;5.57;2.70;;;;;;;17.22;100.00;96016.63;5011922;28;102344;-61
2022/09/24 11:43:12;;;;;;;3.20;2.70;;;;;;;17.23;100.00;96014.75;5009739;28;105818;-61